sensor_id;sensor_type;location;lat;lon;timestamp;P1;durP1;ratioP1;P2;durP2;ratioP2
9256;SDS011;4665;51.368;6.782;2022-08-18T00:00:44;23.20;;;21.23;;
9256;SDS011;4665;51.368;6.782;2022-08-18T00:03:10;25.70;;;23.43;;
9256;SDS011;4665;51.368;6.782;2022-08-18T00:05:36;25.13;;;22.83;;
9256;SDS011;4665;51.368;6.782;2022-08-18T00:08:02;25.90;;;23.40;;
9256;SDS011;4665;51.368;6.782;2022-08-18T00:10:30;29.53;;;26.80;;
9256;SDS011;4665;51.368;6.782;2022-08-18T00:12:56;28.77;;;26.17;;
9256;SDS011;4665;51.368;6.782;2022-08-18T00:15:22;28.80;;;26.10;;
9256;SDS011;4665;51.368;6.782;2022-08-18T00:17:48;26.73;;;24.43;;
9256;SDS011;4665;51.368;6.782;2022-08-18T00:20:15;32.30;;;29.23;;
9256;SDS011;4665;51.368;6.782;2022-08-18T00:22:46;28.13;;;25.53;;
9256;SDS011;4665;51.368;6.782;2022-08-18T00:25:12;28.77;;;26.13;;
9256;SDS011;4665;51.368;6.782;2022-08-18T00:27:40;27.33;;;24.83;;
9256;SDS011;4665;51.368;6.782;2022-08-18T00:30:07;30.17;;;27.47;;
9256;SDS011;4665;51.368;6.782;2022-08-18T00:32:37;32.17;;;29.17;;
9256;SDS011;4665;51.368;6.782;2022-08-18T00:35:06;33.53;;;30.43;;
9256;SDS011;4665;51.368;6.782;2022-08-18T00:37:36;29.83;;;27.13;;
9256;SDS011;4665;51.368;6.782;2022-08-18T00:40:02;30.03;;;27.13;;
9256;SDS011;4665;51.368;6.782;2022-08-18T00:42:29;34.77;;;31.37;;
9256;SDS011;4665;51.368;6.782;2022-08-18T00:44:55;38.23;;;34.33;;
9256;SDS011;4665;51.368;6.782;2022-08-18T00:47:22;35.87;;;32.43;;
9256;SDS011;4665;51.368;6.782;2022-08-18T00:49:49;34.40;;;31.10;;
9256;SDS011;4665;51.368;6.782;2022-08-18T00:52:16;33.03;;;30.03;;
9256;SDS011;4665;51.368;6.782;2022-08-18T00:54:43;32.57;;;29.30;;
9256;SDS011;4665;51.368;6.782;2022-08-18T00:57:10;33.30;;;30.10;;
9256;SDS011;4665;51.368;6.782;2022-08-18T00:59:43;31.87;;;28.97;;
9256;SDS011;4665;51.368;6.782;2022-08-18T01:02:19;28.67;;;26.07;;
9256;SDS011;4665;51.368;6.782;2022-08-18T01:04:52;36.40;;;32.90;;
9256;SDS011;4665;51.368;6.782;2022-08-18T01:07:32;31.50;;;28.60;;
9256;SDS011;4665;51.368;6.782;2022-08-18T01:10:03;35.50;;;32.10;;
9256;SDS011;4665;51.368;6.782;2022-08-18T01:12:30;38.53;;;34.63;;
9256;SDS011;4665;51.368;6.782;2022-08-18T01:14:55;39.83;;;36.00;;
9256;SDS011;4665;51.368;6.782;2022-08-18T01:17:22;31.77;;;28.87;;
9256;SDS011;4665;51.368;6.782;2022-08-18T01:20:09;35.13;;;31.73;;
9256;SDS011;4665;51.368;6.782;2022-08-18T01:23:04;35.63;;;32.07;;
9256;SDS011;4665;51.368;6.782;2022-08-18T01:25:36;40.73;;;36.63;;
9256;SDS011;4665;51.368;6.782;2022-08-18T01:28:20;41.80;;;37.77;;
9256;SDS011;4665;51.368;6.782;2022-08-18T01:30:49;45.40;;;40.87;;
9256;SDS011;4665;51.368;6.782;2022-08-18T01:33:16;42.03;;;37.87;;
9256;SDS011;4665;51.368;6.782;2022-08-18T01:35:43;45.37;;;40.77;;
9256;SDS011;4665;51.368;6.782;2022-08-18T01:38:13;43.20;;;39.00;;
9256;SDS011;4665;51.368;6.782;2022-08-18T01:40:43;54.53;;;48.80;;
9256;SDS011;4665;51.368;6.782;2022-08-18T01:43:09;48.73;;;43.73;;
9256;SDS011;4665;51.368;6.782;2022-08-18T01:45:35;45.67;;;41.17;;
9256;SDS011;4665;51.368;6.782;2022-08-18T01:48:01;45.60;;;40.83;;
9256;SDS011;4665;51.368;6.782;2022-08-18T01:50:28;50.67;;;45.47;;
9256;SDS011;4665;51.368;6.782;2022-08-18T01:52:54;49.00;;;44.00;;
9256;SDS011;4665;51.368;6.782;2022-08-18T01:55:20;50.37;;;45.17;;
9256;SDS011;4665;51.368;6.782;2022-08-18T01:57:45;54.23;;;48.53;;
9256;SDS011;4665;51.368;6.782;2022-08-18T02:00:12;57.17;;;50.97;;
9256;SDS011;4665;51.368;6.782;2022-08-18T02:02:39;57.40;;;51.50;;
9256;SDS011;4665;51.368;6.782;2022-08-18T02:05:07;57.70;;;50.00;;
9256;SDS011;4665;51.368;6.782;2022-08-18T02:07:37;56.87;;;50.60;;
9256;SDS011;4665;51.368;6.782;2022-08-18T02:10:04;60.20;;;53.70;;
9256;SDS011;4665;51.368;6.782;2022-08-18T02:12:33;61.87;;;54.67;;
9256;SDS011;4665;51.368;6.782;2022-08-18T02:14:59;65.33;;;57.07;;
9256;SDS011;4665;51.368;6.782;2022-08-18T02:17:24;56.10;;;49.80;;
9256;SDS011;4665;51.368;6.782;2022-08-18T02:19:50;56.90;;;50.80;;
9256;SDS011;4665;51.368;6.782;2022-08-18T02:22:16;59.33;;;52.90;;
9256;SDS011;4665;51.368;6.782;2022-08-18T02:24:43;59.33;;;51.37;;
9256;SDS011;4665;51.368;6.782;2022-08-18T02:27:09;52.87;;;47.20;;
9256;SDS011;4665;51.368;6.782;2022-08-18T02:29:37;60.20;;;53.57;;
9256;SDS011;4665;51.368;6.782;2022-08-18T02:32:03;62.77;;;54.87;;
9256;SDS011;4665;51.368;6.782;2022-08-18T02:34:29;51.37;;;45.93;;
9256;SDS011;4665;51.368;6.782;2022-08-18T02:36:55;60.07;;;51.33;;
9256;SDS011;4665;51.368;6.782;2022-08-18T02:39:22;55.17;;;49.30;;
9256;SDS011;4665;51.368;6.782;2022-08-18T02:41:48;57.50;;;50.53;;
9256;SDS011;4665;51.368;6.782;2022-08-18T02:44:13;61.50;;;52.90;;
9256;SDS011;4665;51.368;6.782;2022-08-18T02:46:38;57.60;;;50.57;;
9256;SDS011;4665;51.368;6.782;2022-08-18T02:49:05;57.43;;;47.87;;
9256;SDS011;4665;51.368;6.782;2022-08-18T02:51:32;56.40;;;46.87;;
9256;SDS011;4665;51.368;6.782;2022-08-18T02:53:57;55.07;;;46.63;;
9256;SDS011;4665;51.368;6.782;2022-08-18T02:56:24;57.87;;;47.97;;
9256;SDS011;4665;51.368;6.782;2022-08-18T02:58:52;58.03;;;47.53;;
9256;SDS011;4665;51.368;6.782;2022-08-18T03:01:22;71.27;;;54.53;;
9256;SDS011;4665;51.368;6.782;2022-08-18T03:03:50;78.43;;;56.67;;
9256;SDS011;4665;51.368;6.782;2022-08-18T03:06:17;82.17;;;55.53;;
9256;SDS011;4665;51.368;6.782;2022-08-18T03:08:44;87.20;;;59.70;;
9256;SDS011;4665;51.368;6.782;2022-08-18T03:11:18;86.43;;;58.60;;
9256;SDS011;4665;51.368;6.782;2022-08-18T03:13:46;85.27;;;58.90;;
9256;SDS011;4665;51.368;6.782;2022-08-18T03:16:12;84.97;;;57.23;;
9256;SDS011;4665;51.368;6.782;2022-08-18T03:18:37;87.77;;;56.33;;
9256;SDS011;4665;51.368;6.782;2022-08-18T03:21:09;87.03;;;57.77;;
9256;SDS011;4665;51.368;6.782;2022-08-18T03:23:36;76.67;;;54.30;;
9256;SDS011;4665;51.368;6.782;2022-08-18T03:26:07;78.53;;;53.87;;
9256;SDS011;4665;51.368;6.782;2022-08-18T03:28:36;73.20;;;49.40;;
9256;SDS011;4665;51.368;6.782;2022-08-18T03:31:03;77.57;;;50.70;;
9256;SDS011;4665;51.368;6.782;2022-08-18T03:33:28;72.67;;;50.30;;
9256;SDS011;4665;51.368;6.782;2022-08-18T03:35:54;78.17;;;51.43;;
9256;SDS011;4665;51.368;6.782;2022-08-18T03:38:19;64.57;;;47.07;;
9256;SDS011;4665;51.368;6.782;2022-08-18T03:40:51;64.67;;;46.93;;
9256;SDS011;4665;51.368;6.782;2022-08-18T03:43:17;55.27;;;40.97;;
9256;SDS011;4665;51.368;6.782;2022-08-18T03:45:43;53.13;;;41.00;;
9256;SDS011;4665;51.368;6.782;2022-08-18T03:48:09;49.57;;;37.77;;
9256;SDS011;4665;51.368;6.782;2022-08-18T03:50:35;38.73;;;31.10;;
9256;SDS011;4665;51.368;6.782;2022-08-18T03:53:01;52.33;;;37.77;;
9256;SDS011;4665;51.368;6.782;2022-08-18T03:55:29;51.03;;;36.97;;
9256;SDS011;4665;51.368;6.782;2022-08-18T03:57:59;56.43;;;41.30;;
9256;SDS011;4665;51.368;6.782;2022-08-18T04:00:27;65.37;;;46.20;;
9256;SDS011;4665;51.368;6.782;2022-08-18T04:02:54;57.50;;;41.90;;
9256;SDS011;4665;51.368;6.782;2022-08-18T04:05:20;50.50;;;38.17;;
9256;SDS011;4665;51.368;6.782;2022-08-18T04:07:46;46.27;;;36.87;;
9256;SDS011;4665;51.368;6.782;2022-08-18T04:10:11;46.47;;;35.33;;
9256;SDS011;4665;51.368;6.782;2022-08-18T04:12:39;46.07;;;38.00;;
9256;SDS011;4665;51.368;6.782;2022-08-18T04:15:06;51.73;;;41.70;;
9256;SDS011;4665;51.368;6.782;2022-08-18T04:17:31;47.83;;;37.43;;
9256;SDS011;4665;51.368;6.782;2022-08-18T04:19:57;42.60;;;34.53;;
9256;SDS011;4665;51.368;6.782;2022-08-18T04:22:23;44.57;;;36.93;;
9256;SDS011;4665;51.368;6.782;2022-08-18T04:24:49;47.83;;;38.70;;
9256;SDS011;4665;51.368;6.782;2022-08-18T04:27:14;38.57;;;33.27;;
9256;SDS011;4665;51.368;6.782;2022-08-18T04:29:40;39.67;;;31.50;;
9256;SDS011;4665;51.368;6.782;2022-08-18T04:32:06;42.83;;;34.60;;
9256;SDS011;4665;51.368;6.782;2022-08-18T04:34:32;48.17;;;38.67;;
9256;SDS011;4665;51.368;6.782;2022-08-18T04:36:58;42.83;;;36.10;;
9256;SDS011;4665;51.368;6.782;2022-08-18T04:39:24;42.50;;;35.50;;
9256;SDS011;4665;51.368;6.782;2022-08-18T04:41:50;49.13;;;39.57;;
9256;SDS011;4665;51.368;6.782;2022-08-18T04:44:15;43.63;;;36.63;;
9256;SDS011;4665;51.368;6.782;2022-08-18T04:46:47;44.37;;;38.10;;
9256;SDS011;4665;51.368;6.782;2022-08-18T04:49:19;41.30;;;34.73;;
9256;SDS011;4665;51.368;6.782;2022-08-18T04:51:47;38.40;;;32.40;;
9256;SDS011;4665;51.368;6.782;2022-08-18T04:54:33;44.47;;;37.07;;
9256;SDS011;4665;51.368;6.782;2022-08-18T04:57:20;44.90;;;36.33;;
9256;SDS011;4665;51.368;6.782;2022-08-18T04:59:47;44.87;;;38.13;;
9256;SDS011;4665;51.368;6.782;2022-08-18T05:02:15;47.00;;;37.73;;
9256;SDS011;4665;51.368;6.782;2022-08-18T05:04:42;39.67;;;33.47;;
9256;SDS011;4665;51.368;6.782;2022-08-18T05:07:11;50.20;;;38.07;;
9256;SDS011;4665;51.368;6.782;2022-08-18T05:09:38;41.20;;;34.77;;
9256;SDS011;4665;51.368;6.782;2022-08-18T05:12:06;40.47;;;35.77;;
9256;SDS011;4665;51.368;6.782;2022-08-18T05:14:32;47.17;;;39.63;;
9256;SDS011;4665;51.368;6.782;2022-08-18T05:17:00;42.70;;;35.90;;
9256;SDS011;4665;51.368;6.782;2022-08-18T05:19:26;36.47;;;30.73;;
9256;SDS011;4665;51.368;6.782;2022-08-18T05:21:53;38.27;;;31.80;;
9256;SDS011;4665;51.368;6.782;2022-08-18T05:24:20;38.00;;;32.60;;
9256;SDS011;4665;51.368;6.782;2022-08-18T05:26:47;44.73;;;36.43;;
9256;SDS011;4665;51.368;6.782;2022-08-18T05:29:13;43.37;;;36.33;;
9256;SDS011;4665;51.368;6.782;2022-08-18T05:31:40;40.27;;;34.30;;
9256;SDS011;4665;51.368;6.782;2022-08-18T05:34:06;39.77;;;34.37;;
9256;SDS011;4665;51.368;6.782;2022-08-18T05:42:06;39.30;;;34.20;;
9256;SDS011;4665;51.368;6.782;2022-08-18T05:44:40;38.10;;;31.53;;
9256;SDS011;4665;51.368;6.782;2022-08-18T05:47:12;39.20;;;33.17;;
9256;SDS011;4665;51.368;6.782;2022-08-18T05:49:43;34.43;;;30.33;;
9256;SDS011;4665;51.368;6.782;2022-08-18T05:52:14;36.37;;;31.73;;
9256;SDS011;4665;51.368;6.782;2022-08-18T05:55:03;48.17;;;38.50;;
9256;SDS011;4665;51.368;6.782;2022-08-18T05:57:51;38.30;;;33.73;;
9256;SDS011;4665;51.368;6.782;2022-08-18T06:00:20;46.33;;;39.13;;
9256;SDS011;4665;51.368;6.782;2022-08-18T06:05:28;52.17;;;39.13;;
9256;SDS011;4665;51.368;6.782;2022-08-18T06:08:07;47.53;;;38.27;;
9256;SDS011;4665;51.368;6.782;2022-08-18T06:10:36;51.30;;;42.23;;
9256;SDS011;4665;51.368;6.782;2022-08-18T06:13:03;51.80;;;41.40;;
9256;SDS011;4665;51.368;6.782;2022-08-18T06:20:53;47.50;;;36.80;;
9256;SDS011;4665;51.368;6.782;2022-08-18T06:26:24;49.03;;;41.03;;
9256;SDS011;4665;51.368;6.782;2022-08-18T06:37:19;43.33;;;34.37;;
9256;SDS011;4665;51.368;6.782;2022-08-18T06:39:52;50.47;;;39.23;;
9256;SDS011;4665;51.368;6.782;2022-08-18T06:42:18;57.67;;;41.77;;
9256;SDS011;4665;51.368;6.782;2022-08-18T06:44:49;46.03;;;38.23;;
9256;SDS011;4665;51.368;6.782;2022-08-18T06:47:26;52.83;;;40.23;;
9256;SDS011;4665;51.368;6.782;2022-08-18T06:52:28;43.43;;;36.50;;
9256;SDS011;4665;51.368;6.782;2022-08-18T06:55:00;41.23;;;33.00;;
9256;SDS011;4665;51.368;6.782;2022-08-18T06:57:33;46.93;;;37.40;;
9256;SDS011;4665;51.368;6.782;2022-08-18T07:00:23;41.50;;;36.20;;
9256;SDS011;4665;51.368;6.782;2022-08-18T07:03:03;46.70;;;38.63;;
9256;SDS011;4665;51.368;6.782;2022-08-18T07:05:36;45.97;;;37.00;;
9256;SDS011;4665;51.368;6.782;2022-08-18T07:08:40;50.73;;;41.10;;
9256;SDS011;4665;51.368;6.782;2022-08-18T07:11:31;49.27;;;39.20;;
9256;SDS011;4665;51.368;6.782;2022-08-18T07:14:43;50.00;;;40.10;;
9256;SDS011;4665;51.368;6.782;2022-08-18T07:16:46;48.33;;;39.70;;
9256;SDS011;4665;51.368;6.782;2022-08-18T07:21:44;48.57;;;39.90;;
9256;SDS011;4665;51.368;6.782;2022-08-18T07:29:39;49.67;;;38.43;;
9256;SDS011;4665;51.368;6.782;2022-08-18T07:32:21;46.73;;;38.27;;
9256;SDS011;4665;51.368;6.782;2022-08-18T07:34:52;42.77;;;35.63;;
9256;SDS011;4665;51.368;6.782;2022-08-18T07:37:23;43.50;;;36.67;;
9256;SDS011;4665;51.368;6.782;2022-08-18T07:40:06;36.67;;;32.63;;
9256;SDS011;4665;51.368;6.782;2022-08-18T07:42:48;44.47;;;37.77;;
9256;SDS011;4665;51.368;6.782;2022-08-18T07:45:35;43.50;;;36.73;;
9256;SDS011;4665;51.368;6.782;2022-08-18T07:48:23;40.07;;;35.73;;
9256;SDS011;4665;51.368;6.782;2022-08-18T08:04:48;42.00;;;35.70;;
9256;SDS011;4665;51.368;6.782;2022-08-18T08:07:32;37.40;;;33.20;;
9256;SDS011;4665;51.368;6.782;2022-08-18T08:10:11;36.87;;;32.70;;
9256;SDS011;4665;51.368;6.782;2022-08-18T08:12:44;34.80;;;31.13;;
9256;SDS011;4665;51.368;6.782;2022-08-18T08:15:25;36.07;;;32.40;;
9256;SDS011;4665;51.368;6.782;2022-08-18T08:21:02;38.23;;;33.83;;
9256;SDS011;4665;51.368;6.782;2022-08-18T08:32:00;31.90;;;28.43;;
9256;SDS011;4665;51.368;6.782;2022-08-18T08:37:48;31.93;;;28.73;;
9256;SDS011;4665;51.368;6.782;2022-08-18T08:40:23;30.80;;;27.70;;
9256;SDS011;4665;51.368;6.782;2022-08-18T08:43:00;30.73;;;27.40;;
9256;SDS011;4665;51.368;6.782;2022-08-18T08:45:37;30.07;;;27.00;;
9256;SDS011;4665;51.368;6.782;2022-08-18T08:50:56;25.63;;;23.20;;
9256;SDS011;4665;51.368;6.782;2022-08-18T08:53:43;28.07;;;24.60;;
9256;SDS011;4665;51.368;6.782;2022-08-18T08:56:15;26.87;;;24.27;;
9256;SDS011;4665;51.368;6.782;2022-08-18T08:58:44;25.63;;;22.93;;
9256;SDS011;4665;51.368;6.782;2022-08-18T09:01:25;26.93;;;24.23;;
9256;SDS011;4665;51.368;6.782;2022-08-18T09:03:58;25.90;;;23.23;;
9256;SDS011;4665;51.368;6.782;2022-08-18T09:09:36;23.40;;;21.20;;
9256;SDS011;4665;51.368;6.782;2022-08-18T09:17:47;21.00;;;18.97;;
9256;SDS011;4665;51.368;6.782;2022-08-18T09:20:36;22.17;;;20.07;;
9256;SDS011;4665;51.368;6.782;2022-08-18T09:23:09;22.27;;;20.07;;
9256;SDS011;4665;51.368;6.782;2022-08-18T09:28:09;20.97;;;19.17;;
9256;SDS011;4665;51.368;6.782;2022-08-18T09:30:39;20.43;;;18.43;;
9256;SDS011;4665;51.368;6.782;2022-08-18T09:42:08;16.73;;;15.10;;
9256;SDS011;4665;51.368;6.782;2022-08-18T09:49:48;15.03;;;13.57;;
9256;SDS011;4665;51.368;6.782;2022-08-18T09:57:40;14.77;;;13.47;;
9256;SDS011;4665;51.368;6.782;2022-08-18T10:21:15;13.63;;;12.40;;
9256;SDS011;4665;51.368;6.782;2022-08-18T10:29:09;11.90;;;10.80;;
9256;SDS011;4665;51.368;6.782;2022-08-18T10:36:59;12.73;;;11.50;;
9256;SDS011;4665;51.368;6.782;2022-08-18T10:39:30;13.43;;;12.23;;
9256;SDS011;4665;51.368;6.782;2022-08-18T10:44:49;11.77;;;10.77;;
9256;SDS011;4665;51.368;6.782;2022-08-18T10:47:22;12.17;;;11.07;;
9256;SDS011;4665;51.368;6.782;2022-08-18T10:50:04;11.37;;;10.23;;
9256;SDS011;4665;51.368;6.782;2022-08-18T11:06:16;11.93;;;10.93;;
9256;SDS011;4665;51.368;6.782;2022-08-18T11:08:46;13.30;;;12.20;;
9256;SDS011;4665;51.368;6.782;2022-08-18T11:11:14;13.90;;;12.47;;
9256;SDS011;4665;51.368;6.782;2022-08-18T11:14:07;13.13;;;11.93;;
9256;SDS011;4665;51.368;6.782;2022-08-18T11:19:46;15.40;;;14.00;;
9256;SDS011;4665;51.368;6.782;2022-08-18T11:25:26;14.33;;;13.13;;
9256;SDS011;4665;51.368;6.782;2022-08-18T11:27:53;15.23;;;13.77;;
9256;SDS011;4665;51.368;6.782;2022-08-18T11:30:20;15.37;;;14.00;;
9256;SDS011;4665;51.368;6.782;2022-08-18T11:32:48;15.50;;;14.13;;
9256;SDS011;4665;51.368;6.782;2022-08-18T11:35:15;13.80;;;12.57;;
9256;SDS011;4665;51.368;6.782;2022-08-18T11:37:48;14.47;;;13.37;;
9256;SDS011;4665;51.368;6.782;2022-08-18T11:45:35;13.43;;;12.20;;
9256;SDS011;4665;51.368;6.782;2022-08-18T11:48:35;13.80;;;12.53;;
9256;SDS011;4665;51.368;6.782;2022-08-18T11:51:07;15.07;;;13.77;;
9256;SDS011;4665;51.368;6.782;2022-08-18T12:04:20;22.90;;;20.67;;
9256;SDS011;4665;51.368;6.782;2022-08-18T12:12:27;20.37;;;18.73;;
9256;SDS011;4665;51.368;6.782;2022-08-18T12:17:22;21.10;;;19.40;;
9256;SDS011;4665;51.368;6.782;2022-08-18T12:22:21;25.67;;;23.43;;
9256;SDS011;4665;51.368;6.782;2022-08-18T12:27:43;12.77;;;11.47;;
9256;SDS011;4665;51.368;6.782;2022-08-18T12:30:09;11.47;;;10.33;;
9256;SDS011;4665;51.368;6.782;2022-08-18T12:32:41;11.60;;;10.50;;
9256;SDS011;4665;51.368;6.782;2022-08-18T12:35:07;9.63;;;8.80;;
9256;SDS011;4665;51.368;6.782;2022-08-18T12:37:35;8.57;;;7.97;;
9256;SDS011;4665;51.368;6.782;2022-08-18T12:40:02;9.00;;;8.30;;
9256;SDS011;4665;51.368;6.782;2022-08-18T12:42:34;8.30;;;7.70;;
9256;SDS011;4665;51.368;6.782;2022-08-18T12:44:59;7.53;;;7.00;;
9256;SDS011;4665;51.368;6.782;2022-08-18T12:47:29;6.50;;;6.10;;
9256;SDS011;4665;51.368;6.782;2022-08-18T12:49:55;8.87;;;8.27;;
9256;SDS011;4665;51.368;6.782;2022-08-18T12:55:06;7.63;;;7.03;;
9256;SDS011;4665;51.368;6.782;2022-08-18T12:57:34;7.23;;;6.73;;
9256;SDS011;4665;51.368;6.782;2022-08-18T13:00:00;6.80;;;6.40;;
9256;SDS011;4665;51.368;6.782;2022-08-18T13:02:33;6.00;;;5.50;;
9256;SDS011;4665;51.368;6.782;2022-08-18T13:04:58;7.77;;;7.07;;
9256;SDS011;4665;51.368;6.782;2022-08-18T13:07:29;8.30;;;7.43;;
9256;SDS011;4665;51.368;6.782;2022-08-18T13:09:55;6.23;;;5.83;;
9256;SDS011;4665;51.368;6.782;2022-08-18T13:12:32;7.23;;;6.73;;
9256;SDS011;4665;51.368;6.782;2022-08-18T13:14:58;7.87;;;7.37;;
9256;SDS011;4665;51.368;6.782;2022-08-18T13:17:23;7.80;;;7.20;;
9256;SDS011;4665;51.368;6.782;2022-08-18T13:19:49;7.70;;;7.20;;
9256;SDS011;4665;51.368;6.782;2022-08-18T13:22:14;7.30;;;6.50;;
9256;SDS011;4665;51.368;6.782;2022-08-18T13:24:40;4.73;;;4.33;;
9256;SDS011;4665;51.368;6.782;2022-08-18T13:27:05;4.73;;;4.43;;
9256;SDS011;4665;51.368;6.782;2022-08-18T13:29:31;5.30;;;4.80;;
9256;SDS011;4665;51.368;6.782;2022-08-18T13:31:56;4.57;;;4.27;;
9256;SDS011;4665;51.368;6.782;2022-08-18T13:34:24;4.97;;;4.57;;
9256;SDS011;4665;51.368;6.782;2022-08-18T13:36:51;5.27;;;4.87;;
9256;SDS011;4665;51.368;6.782;2022-08-18T13:41:57;6.10;;;5.70;;
9256;SDS011;4665;51.368;6.782;2022-08-18T13:44:43;6.13;;;5.67;;
9256;SDS011;4665;51.368;6.782;2022-08-18T13:47:09;5.23;;;4.93;;
9256;SDS011;4665;51.368;6.782;2022-08-18T13:49:34;5.30;;;5.00;;
9256;SDS011;4665;51.368;6.782;2022-08-18T13:52:00;5.60;;;5.20;;
9256;SDS011;4665;51.368;6.782;2022-08-18T13:54:26;4.63;;;4.30;;
9256;SDS011;4665;51.368;6.782;2022-08-18T13:56:54;6.37;;;5.73;;
9256;SDS011;4665;51.368;6.782;2022-08-18T13:59:20;6.90;;;6.30;;
9256;SDS011;4665;51.368;6.782;2022-08-18T14:01:48;6.47;;;6.07;;
9256;SDS011;4665;51.368;6.782;2022-08-18T14:04:15;6.10;;;5.60;;
9256;SDS011;4665;51.368;6.782;2022-08-18T14:06:41;5.17;;;4.87;;
9256;SDS011;4665;51.368;6.782;2022-08-18T14:09:07;5.10;;;4.60;;
9256;SDS011;4665;51.368;6.782;2022-08-18T14:11:33;4.67;;;4.37;;
9256;SDS011;4665;51.368;6.782;2022-08-18T14:14:01;5.00;;;4.68;;
9256;SDS011;4665;51.368;6.782;2022-08-18T14:16:29;4.80;;;4.50;;
9256;SDS011;4665;51.368;6.782;2022-08-18T14:18:57;7.73;;;4.80;;
9256;SDS011;4665;51.368;6.782;2022-08-18T14:21:42;5.55;;;4.68;;
9256;SDS011;4665;51.368;6.782;2022-08-18T14:24:31;4.35;;;4.05;;
9256;SDS011;4665;51.368;6.782;2022-08-18T14:27:16;4.32;;;4.03;;
9256;SDS011;4665;51.368;6.782;2022-08-18T14:29:42;4.53;;;4.30;;
9256;SDS011;4665;51.368;6.782;2022-08-18T14:32:10;5.70;;;5.30;;
9256;SDS011;4665;51.368;6.782;2022-08-18T14:34:36;5.85;;;5.35;;
9256;SDS011;4665;51.368;6.782;2022-08-18T14:37:02;5.80;;;5.22;;
9256;SDS011;4665;51.368;6.782;2022-08-18T14:39:28;5.40;;;5.00;;
9256;SDS011;4665;51.368;6.782;2022-08-18T14:41:53;4.67;;;4.37;;
9256;SDS011;4665;51.368;6.782;2022-08-18T14:44:22;7.47;;;4.53;;
9256;SDS011;4665;51.368;6.782;2022-08-18T14:46:48;4.80;;;4.43;;
9256;SDS011;4665;51.368;6.782;2022-08-18T14:49:13;5.03;;;4.68;;
9256;SDS011;4665;51.368;6.782;2022-08-18T14:51:39;5.22;;;4.88;;
9256;SDS011;4665;51.368;6.782;2022-08-18T14:54:07;5.80;;;5.40;;
9256;SDS011;4665;51.368;6.782;2022-08-18T14:56:33;8.38;;;6.03;;
9256;SDS011;4665;51.368;6.782;2022-08-18T14:58:59;7.57;;;5.30;;
9256;SDS011;4665;51.368;6.782;2022-08-18T15:01:24;5.00;;;4.70;;
9256;SDS011;4665;51.368;6.782;2022-08-18T15:03:50;5.40;;;4.93;;
9256;SDS011;4665;51.368;6.782;2022-08-18T15:06:16;5.70;;;5.22;;
9256;SDS011;4665;51.368;6.782;2022-08-18T15:08:42;5.35;;;4.88;;
9256;SDS011;4665;51.368;6.782;2022-08-18T15:11:08;8.10;;;5.28;;
9256;SDS011;4665;51.368;6.782;2022-08-18T15:13:37;5.60;;;4.90;;
9256;SDS011;4665;51.368;6.782;2022-08-18T15:16:03;6.75;;;5.28;;
9256;SDS011;4665;51.368;6.782;2022-08-18T15:18:35;5.03;;;4.72;;
9256;SDS011;4665;51.368;6.782;2022-08-18T15:21:00;5.43;;;5.03;;
9256;SDS011;4665;51.368;6.782;2022-08-18T15:23:44;4.90;;;4.50;;
9256;SDS011;4665;51.368;6.782;2022-08-18T15:26:29;4.90;;;4.50;;
9256;SDS011;4665;51.368;6.782;2022-08-18T15:28:56;5.22;;;4.82;;
9256;SDS011;4665;51.368;6.782;2022-08-18T15:31:23;5.57;;;4.80;;
9256;SDS011;4665;51.368;6.782;2022-08-18T15:39:47;4.90;;;4.53;;
9256;SDS011;4665;51.368;6.782;2022-08-18T15:42:13;4.68;;;4.28;;
9256;SDS011;4665;51.368;6.782;2022-08-18T15:44:38;5.38;;;4.80;;
9256;SDS011;4665;51.368;6.782;2022-08-18T15:47:04;5.88;;;4.45;;
9256;SDS011;4665;51.368;6.782;2022-08-18T15:49:31;4.70;;;4.25;;
9256;SDS011;4665;51.368;6.782;2022-08-18T15:51:56;4.93;;;4.53;;
9256;SDS011;4665;51.368;6.782;2022-08-18T15:54:22;4.10;;;3.90;;
9256;SDS011;4665;51.368;6.782;2022-08-18T15:56:47;4.93;;;4.30;;
9256;SDS011;4665;51.368;6.782;2022-08-18T15:59:12;4.88;;;4.50;;
9256;SDS011;4665;51.368;6.782;2022-08-18T16:01:38;4.38;;;4.05;;
9256;SDS011;4665;51.368;6.782;2022-08-18T16:04:04;4.40;;;4.10;;
9256;SDS011;4665;51.368;6.782;2022-08-18T16:06:31;4.63;;;4.23;;
9256;SDS011;4665;51.368;6.782;2022-08-18T16:08:57;5.00;;;3.80;;
9256;SDS011;4665;51.368;6.782;2022-08-18T16:14:45;5.05;;;4.28;;
9256;SDS011;4665;51.368;6.782;2022-08-18T16:17:10;4.15;;;3.75;;
9256;SDS011;4665;51.368;6.782;2022-08-18T16:19:36;4.72;;;4.43;;
9256;SDS011;4665;51.368;6.782;2022-08-18T16:22:01;4.40;;;4.10;;
9256;SDS011;4665;51.368;6.782;2022-08-18T16:24:30;4.55;;;4.20;;
9256;SDS011;4665;51.368;6.782;2022-08-18T16:30:16;4.28;;;3.97;;
9256;SDS011;4665;51.368;6.782;2022-08-18T16:32:44;3.95;;;3.75;;
9256;SDS011;4665;51.368;6.782;2022-08-18T16:35:11;5.38;;;4.15;;
9256;SDS011;4665;51.368;6.782;2022-08-18T16:37:37;4.95;;;3.70;;
9256;SDS011;4665;51.368;6.782;2022-08-18T16:40:03;4.93;;;4.00;;
9256;SDS011;4665;51.368;6.782;2022-08-18T16:42:30;4.65;;;4.35;;
9256;SDS011;4665;51.368;6.782;2022-08-18T16:44:57;4.82;;;4.35;;
9256;SDS011;4665;51.368;6.782;2022-08-18T16:47:23;5.07;;;4.68;;
9256;SDS011;4665;51.368;6.782;2022-08-18T16:49:49;4.32;;;4.03;;
9256;SDS011;4665;51.368;6.782;2022-08-18T16:52:15;4.45;;;4.05;;
9256;SDS011;4665;51.368;6.782;2022-08-18T16:54:43;4.20;;;3.88;;
9256;SDS011;4665;51.368;6.782;2022-08-18T16:57:09;4.25;;;3.85;;
9256;SDS011;4665;51.368;6.782;2022-08-18T16:59:35;3.80;;;3.60;;
9256;SDS011;4665;51.368;6.782;2022-08-18T17:02:20;5.28;;;4.10;;
9256;SDS011;4665;51.368;6.782;2022-08-18T17:05:04;4.85;;;4.35;;
9256;SDS011;4665;51.368;6.782;2022-08-18T17:07:30;4.93;;;4.10;;
9256;SDS011;4665;51.368;6.782;2022-08-18T17:09:57;4.43;;;4.03;;
9256;SDS011;4665;51.368;6.782;2022-08-18T17:12:23;4.68;;;4.20;;
9256;SDS011;4665;51.368;6.782;2022-08-18T17:14:50;5.93;;;4.07;;
9256;SDS011;4665;51.368;6.782;2022-08-18T17:17:15;4.57;;;4.18;;
9256;SDS011;4665;51.368;6.782;2022-08-18T17:19:42;4.63;;;4.18;;
9256;SDS011;4665;51.368;6.782;2022-08-18T17:22:09;4.22;;;3.83;;
9256;SDS011;4665;51.368;6.782;2022-08-18T17:24:35;4.22;;;4.00;;
9256;SDS011;4665;51.368;6.782;2022-08-18T17:27:14;4.53;;;4.10;;
9256;SDS011;4665;51.368;6.782;2022-08-18T17:32:26;4.63;;;4.15;;
9256;SDS011;4665;51.368;6.782;2022-08-18T17:35:06;5.82;;;3.83;;
9256;SDS011;4665;51.368;6.782;2022-08-18T17:37:38;5.32;;;4.18;;
9256;SDS011;4665;51.368;6.782;2022-08-18T17:40:36;4.32;;;3.97;;
9256;SDS011;4665;51.368;6.782;2022-08-18T17:43:14;4.50;;;4.05;;
9256;SDS011;4665;51.368;6.782;2022-08-18T17:45:42;5.72;;;3.65;;
9256;SDS011;4665;51.368;6.782;2022-08-18T17:48:20;4.43;;;4.03;;
9256;SDS011;4665;51.368;6.782;2022-08-18T17:50:54;5.90;;;4.15;;
9256;SDS011;4665;51.368;6.782;2022-08-18T17:53:42;4.50;;;4.10;;
9256;SDS011;4665;51.368;6.782;2022-08-18T17:59:01;4.47;;;4.10;;
9256;SDS011;4665;51.368;6.782;2022-08-18T18:01:34;4.50;;;4.15;;
9256;SDS011;4665;51.368;6.782;2022-08-18T18:04:00;4.95;;;4.30;;
9256;SDS011;4665;51.368;6.782;2022-08-18T18:11:34;4.70;;;4.40;;
9256;SDS011;4665;51.368;6.782;2022-08-18T18:16:59;5.25;;;4.20;;
9256;SDS011;4665;51.368;6.782;2022-08-18T18:19:49;4.73;;;4.27;;
9256;SDS011;4665;51.368;6.782;2022-08-18T18:24:56;4.30;;;4.00;;
9256;SDS011;4665;51.368;6.782;2022-08-18T18:33:02;5.20;;;4.70;;
9256;SDS011;4665;51.368;6.782;2022-08-18T18:35:51;4.57;;;4.07;;
9256;SDS011;4665;51.368;6.782;2022-08-18T18:38:37;5.37;;;4.73;;
9256;SDS011;4665;51.368;6.782;2022-08-18T18:43:42;4.60;;;4.20;;
9256;SDS011;4665;51.368;6.782;2022-08-18T18:51:48;5.33;;;5.03;;
9256;SDS011;4665;51.368;6.782;2022-08-18T18:57:03;5.50;;;5.00;;
9256;SDS011;4665;51.368;6.782;2022-08-18T19:03:00;6.47;;;5.00;;
9256;SDS011;4665;51.368;6.782;2022-08-18T19:08:50;5.03;;;4.53;;
9256;SDS011;4665;51.368;6.782;2022-08-18T19:14:02;5.73;;;4.97;;
9256;SDS011;4665;51.368;6.782;2022-08-18T19:19:28;5.83;;;5.30;;